sensor_id;sensor_type;location;lat;lon;timestamp;P1;durP1;ratioP1;P2;durP2;ratioP2
13975;SDS011;7062;49.792;9.946;2023-05-07T00:02:05;4.93;;;3.67;;
13975;SDS011;7062;49.792;9.946;2023-05-07T00:04:32;3.47;;;2.10;;
13975;SDS011;7062;49.792;9.946;2023-05-07T00:07:01;3.00;;;2.57;;
13975;SDS011;7062;49.792;9.946;2023-05-07T00:09:27;3.50;;;2.33;;
13975;SDS011;7062;49.792;9.946;2023-05-07T00:11:53;4.10;;;2.20;;
13975;SDS011;7062;49.792;9.946;2023-05-07T00:14:19;3.57;;;1.80;;
13975;SDS011;7062;49.792;9.946;2023-05-07T00:16:45;4.57;;;2.73;;
13975;SDS011;7062;49.792;9.946;2023-05-07T00:19:11;3.33;;;2.23;;
13975;SDS011;7062;49.792;9.946;2023-05-07T00:21:37;4.73;;;2.87;;
13975;SDS011;7062;49.792;9.946;2023-05-07T00:24:03;3.30;;;2.10;;
13975;SDS011;7062;49.792;9.946;2023-05-07T00:26:29;2.60;;;2.00;;
13975;SDS011;7062;49.792;9.946;2023-05-07T00:28:54;3.30;;;2.93;;
13975;SDS011;7062;49.792;9.946;2023-05-07T00:31:20;3.77;;;2.47;;
13975;SDS011;7062;49.792;9.946;2023-05-07T00:33:45;4.07;;;2.20;;
13975;SDS011;7062;49.792;9.946;2023-05-07T00:36:11;3.83;;;2.60;;
13975;SDS011;7062;49.792;9.946;2023-05-07T00:38:37;4.00;;;2.33;;
13975;SDS011;7062;49.792;9.946;2023-05-07T00:41:03;2.03;;;1.77;;
13975;SDS011;7062;49.792;9.946;2023-05-07T00:43:28;2.77;;;2.27;;
13975;SDS011;7062;49.792;9.946;2023-05-07T00:45:54;2.10;;;1.90;;
13975;SDS011;7062;49.792;9.946;2023-05-07T00:48:20;2.47;;;1.93;;
13975;SDS011;7062;49.792;9.946;2023-05-07T00:50:46;2.43;;;1.87;;
13975;SDS011;7062;49.792;9.946;2023-05-07T00:53:13;2.60;;;2.10;;
13975;SDS011;7062;49.792;9.946;2023-05-07T00:55:39;4.43;;;1.77;;
13975;SDS011;7062;49.792;9.946;2023-05-07T00:58:05;2.03;;;1.83;;
13975;SDS011;7062;49.792;9.946;2023-05-07T01:00:31;2.13;;;1.67;;
13975;SDS011;7062;49.792;9.946;2023-05-07T01:02:57;1.60;;;1.30;;
13975;SDS011;7062;49.792;9.946;2023-05-07T01:05:23;2.23;;;1.90;;
13975;SDS011;7062;49.792;9.946;2023-05-07T01:07:51;1.93;;;1.50;;
13975;SDS011;7062;49.792;9.946;2023-05-07T01:10:18;3.37;;;1.77;;
13975;SDS011;7062;49.792;9.946;2023-05-07T01:12:44;2.70;;;1.80;;
13975;SDS011;7062;49.792;9.946;2023-05-07T01:15:12;1.87;;;1.60;;
13975;SDS011;7062;49.792;9.946;2023-05-07T01:17:38;2.30;;;2.00;;
13975;SDS011;7062;49.792;9.946;2023-05-07T01:20:06;2.73;;;2.10;;
13975;SDS011;7062;49.792;9.946;2023-05-07T01:22:32;1.97;;;1.73;;
13975;SDS011;7062;49.792;9.946;2023-05-07T01:25:02;3.10;;;2.10;;
13975;SDS011;7062;49.792;9.946;2023-05-07T01:27:29;2.47;;;1.73;;
13975;SDS011;7062;49.792;9.946;2023-05-07T01:29:54;2.80;;;1.70;;
13975;SDS011;7062;49.792;9.946;2023-05-07T01:32:21;1.87;;;1.60;;
13975;SDS011;7062;49.792;9.946;2023-05-07T01:34:53;2.63;;;1.50;;
13975;SDS011;7062;49.792;9.946;2023-05-07T01:37:21;1.67;;;1.57;;
13975;SDS011;7062;49.792;9.946;2023-05-07T01:39:47;2.87;;;1.97;;
13975;SDS011;7062;49.792;9.946;2023-05-07T01:42:13;6.40;;;2.00;;
13975;SDS011;7062;49.792;9.946;2023-05-07T01:44:39;4.77;;;2.10;;
13975;SDS011;7062;49.792;9.946;2023-05-07T01:47:04;1.60;;;1.50;;
13975;SDS011;7062;49.792;9.946;2023-05-07T01:49:31;4.30;;;3.40;;
13975;SDS011;7062;49.792;9.946;2023-05-07T01:51:57;2.50;;;2.30;;
13975;SDS011;7062;49.792;9.946;2023-05-07T01:54:26;3.63;;;2.03;;
13975;SDS011;7062;49.792;9.946;2023-05-07T01:56:52;4.13;;;2.90;;
13975;SDS011;7062;49.792;9.946;2023-05-07T01:59:18;4.17;;;2.07;;
13975;SDS011;7062;49.792;9.946;2023-05-07T02:01:44;2.63;;;1.83;;
13975;SDS011;7062;49.792;9.946;2023-05-07T02:04:10;3.80;;;1.90;;
13975;SDS011;7062;49.792;9.946;2023-05-07T02:06:35;3.40;;;2.03;;
13975;SDS011;7062;49.792;9.946;2023-05-07T02:09:01;5.77;;;2.20;;
13975;SDS011;7062;49.792;9.946;2023-05-07T02:11:26;2.53;;;1.80;;
13975;SDS011;7062;49.792;9.946;2023-05-07T02:13:52;2.57;;;1.57;;
13975;SDS011;7062;49.792;9.946;2023-05-07T02:16:18;4.33;;;2.53;;
13975;SDS011;7062;49.792;9.946;2023-05-07T02:18:44;2.37;;;1.73;;
13975;SDS011;7062;49.792;9.946;2023-05-07T02:21:10;3.77;;;2.50;;
13975;SDS011;7062;49.792;9.946;2023-05-07T02:23:36;2.93;;;1.60;;
13975;SDS011;7062;49.792;9.946;2023-05-07T02:26:03;3.13;;;2.20;;
13975;SDS011;7062;49.792;9.946;2023-05-07T02:28:29;9.93;;;2.70;;
13975;SDS011;7062;49.792;9.946;2023-05-07T02:30:55;3.03;;;2.53;;
13975;SDS011;7062;49.792;9.946;2023-05-07T02:33:23;3.27;;;2.70;;
13975;SDS011;7062;49.792;9.946;2023-05-07T02:35:49;4.63;;;2.47;;
13975;SDS011;7062;49.792;9.946;2023-05-07T02:38:16;4.33;;;2.70;;
13975;SDS011;7062;49.792;9.946;2023-05-07T02:40:42;3.17;;;2.40;;
13975;SDS011;7062;49.792;9.946;2023-05-07T02:43:08;2.87;;;2.67;;
13975;SDS011;7062;49.792;9.946;2023-05-07T02:45:34;4.80;;;3.33;;
13975;SDS011;7062;49.792;9.946;2023-05-07T02:48:02;3.10;;;2.67;;
13975;SDS011;7062;49.792;9.946;2023-05-07T02:50:28;2.80;;;2.60;;
13975;SDS011;7062;49.792;9.946;2023-05-07T02:52:54;3.87;;;2.57;;
13975;SDS011;7062;49.792;9.946;2023-05-07T02:55:20;3.20;;;2.77;;
13975;SDS011;7062;49.792;9.946;2023-05-07T02:57:46;3.10;;;2.77;;
13975;SDS011;7062;49.792;9.946;2023-05-07T03:00:15;3.20;;;2.40;;
13975;SDS011;7062;49.792;9.946;2023-05-07T03:02:43;2.70;;;2.40;;
13975;SDS011;7062;49.792;9.946;2023-05-07T03:05:09;2.83;;;2.10;;
13975;SDS011;7062;49.792;9.946;2023-05-07T03:07:36;5.47;;;3.03;;
13975;SDS011;7062;49.792;9.946;2023-05-07T03:10:02;3.20;;;2.57;;
13975;SDS011;7062;49.792;9.946;2023-05-07T03:12:28;3.07;;;2.77;;
13975;SDS011;7062;49.792;9.946;2023-05-07T03:14:54;3.37;;;3.07;;
13975;SDS011;7062;49.792;9.946;2023-05-07T03:17:20;6.30;;;3.33;;
13975;SDS011;7062;49.792;9.946;2023-05-07T03:19:46;4.57;;;3.80;;
13975;SDS011;7062;49.792;9.946;2023-05-07T03:22:12;5.60;;;3.80;;
13975;SDS011;7062;49.792;9.946;2023-05-07T03:24:37;3.43;;;3.13;;
13975;SDS011;7062;49.792;9.946;2023-05-07T03:27:03;6.40;;;4.70;;
13975;SDS011;7062;49.792;9.946;2023-05-07T03:29:28;4.63;;;4.13;;
13975;SDS011;7062;49.792;9.946;2023-05-07T03:31:54;5.70;;;3.70;;
13975;SDS011;7062;49.792;9.946;2023-05-07T03:34:20;4.27;;;3.83;;
13975;SDS011;7062;49.792;9.946;2023-05-07T03:36:50;4.37;;;3.80;;
13975;SDS011;7062;49.792;9.946;2023-05-07T03:39:15;3.37;;;3.17;;
13975;SDS011;7062;49.792;9.946;2023-05-07T03:41:41;4.47;;;3.73;;
13975;SDS011;7062;49.792;9.946;2023-05-07T03:44:07;5.03;;;4.23;;
13975;SDS011;7062;49.792;9.946;2023-05-07T03:46:32;4.47;;;4.07;;
13975;SDS011;7062;49.792;9.946;2023-05-07T03:48:58;4.93;;;4.53;;
13975;SDS011;7062;49.792;9.946;2023-05-07T03:51:24;5.37;;;4.93;;
13975;SDS011;7062;49.792;9.946;2023-05-07T03:53:51;5.33;;;4.83;;
13975;SDS011;7062;49.792;9.946;2023-05-07T03:56:22;4.77;;;4.37;;
13975;SDS011;7062;49.792;9.946;2023-05-07T03:58:48;5.17;;;4.67;;
13975;SDS011;7062;49.792;9.946;2023-05-07T04:01:13;4.63;;;4.23;;
13975;SDS011;7062;49.792;9.946;2023-05-07T04:03:39;6.87;;;5.53;;
13975;SDS011;7062;49.792;9.946;2023-05-07T04:06:05;4.47;;;4.10;;
13975;SDS011;7062;49.792;9.946;2023-05-07T04:08:31;5.47;;;4.97;;
13975;SDS011;7062;49.792;9.946;2023-05-07T04:10:57;6.20;;;5.10;;
13975;SDS011;7062;49.792;9.946;2023-05-07T04:13:23;5.90;;;5.37;;
13975;SDS011;7062;49.792;9.946;2023-05-07T04:15:49;5.23;;;4.83;;
13975;SDS011;7062;49.792;9.946;2023-05-07T04:18:15;5.90;;;4.80;;
13975;SDS011;7062;49.792;9.946;2023-05-07T04:20:41;5.97;;;5.43;;
13975;SDS011;7062;49.792;9.946;2023-05-07T04:23:07;6.13;;;5.53;;
13975;SDS011;7062;49.792;9.946;2023-05-07T04:25:32;6.07;;;5.47;;
13975;SDS011;7062;49.792;9.946;2023-05-07T04:27:58;6.50;;;5.77;;
13975;SDS011;7062;49.792;9.946;2023-05-07T04:30:24;6.00;;;5.50;;
13975;SDS011;7062;49.792;9.946;2023-05-07T04:32:50;5.90;;;5.30;;
13975;SDS011;7062;49.792;9.946;2023-05-07T04:35:16;5.87;;;5.37;;
13975;SDS011;7062;49.792;9.946;2023-05-07T04:37:42;6.30;;;5.70;;
13975;SDS011;7062;49.792;9.946;2023-05-07T04:40:08;6.33;;;5.83;;
13975;SDS011;7062;49.792;9.946;2023-05-07T04:42:34;6.27;;;5.77;;
13975;SDS011;7062;49.792;9.946;2023-05-07T04:45:01;9.33;;;6.57;;
13975;SDS011;7062;49.792;9.946;2023-05-07T04:47:27;6.47;;;5.87;;
13975;SDS011;7062;49.792;9.946;2023-05-07T04:49:52;6.90;;;6.37;;
13975;SDS011;7062;49.792;9.946;2023-05-07T04:52:18;6.13;;;5.47;;
13975;SDS011;7062;49.792;9.946;2023-05-07T04:54:43;7.73;;;6.97;;
13975;SDS011;7062;49.792;9.946;2023-05-07T04:57:09;6.70;;;6.10;;
13975;SDS011;7062;49.792;9.946;2023-05-07T04:59:35;6.97;;;6.30;;
13975;SDS011;7062;49.792;9.946;2023-05-07T05:02:00;8.63;;;6.30;;
13975;SDS011;7062;49.792;9.946;2023-05-07T05:04:26;6.63;;;6.07;;
13975;SDS011;7062;49.792;9.946;2023-05-07T05:06:52;6.50;;;5.90;;
13975;SDS011;7062;49.792;9.946;2023-05-07T05:09:18;7.47;;;6.50;;
13975;SDS011;7062;49.792;9.946;2023-05-07T05:11:43;6.73;;;6.03;;
13975;SDS011;7062;49.792;9.946;2023-05-07T05:14:09;5.80;;;5.30;;
13975;SDS011;7062;49.792;9.946;2023-05-07T05:16:35;9.53;;;5.87;;
13975;SDS011;7062;49.792;9.946;2023-05-07T05:19:01;6.87;;;6.27;;
13975;SDS011;7062;49.792;9.946;2023-05-07T05:21:27;7.20;;;6.57;;
13975;SDS011;7062;49.792;9.946;2023-05-07T05:23:53;7.60;;;6.90;;
13975;SDS011;7062;49.792;9.946;2023-05-07T05:26:19;7.30;;;6.60;;
13975;SDS011;7062;49.792;9.946;2023-05-07T05:28:46;6.63;;;6.03;;
13975;SDS011;7062;49.792;9.946;2023-05-07T05:31:12;7.27;;;6.57;;
13975;SDS011;7062;49.792;9.946;2023-05-07T05:33:39;7.40;;;6.70;;
13975;SDS011;7062;49.792;9.946;2023-05-07T05:36:05;7.10;;;6.40;;
13975;SDS011;7062;49.792;9.946;2023-05-07T05:38:31;6.97;;;6.37;;
13975;SDS011;7062;49.792;9.946;2023-05-07T05:40:56;7.07;;;6.33;;
13975;SDS011;7062;49.792;9.946;2023-05-07T05:43:22;6.90;;;6.37;;
13975;SDS011;7062;49.792;9.946;2023-05-07T05:45:48;7.27;;;6.67;;
13975;SDS011;7062;49.792;9.946;2023-05-07T05:48:13;6.77;;;6.10;;
13975;SDS011;7062;49.792;9.946;2023-05-07T05:50:39;7.00;;;6.40;;
13975;SDS011;7062;49.792;9.946;2023-05-07T05:53:08;7.37;;;6.67;;
13975;SDS011;7062;49.792;9.946;2023-05-07T05:55:33;7.50;;;6.90;;
13975;SDS011;7062;49.792;9.946;2023-05-07T05:58:02;7.60;;;7.00;;
13975;SDS011;7062;49.792;9.946;2023-05-07T06:00:28;6.80;;;6.13;;
13975;SDS011;7062;49.792;9.946;2023-05-07T06:02:54;7.27;;;6.63;;
13975;SDS011;7062;49.792;9.946;2023-05-07T06:05:20;7.33;;;6.73;;
13975;SDS011;7062;49.792;9.946;2023-05-07T06:07:46;6.97;;;6.37;;
13975;SDS011;7062;49.792;9.946;2023-05-07T06:10:11;6.97;;;6.47;;
13975;SDS011;7062;49.792;9.946;2023-05-07T06:12:37;7.87;;;6.97;;
13975;SDS011;7062;49.792;9.946;2023-05-07T06:15:03;7.53;;;6.83;;
13975;SDS011;7062;49.792;9.946;2023-05-07T06:17:29;8.07;;;7.30;;
13975;SDS011;7062;49.792;9.946;2023-05-07T06:19:55;7.37;;;6.67;;
13975;SDS011;7062;49.792;9.946;2023-05-07T06:22:21;8.00;;;7.30;;
13975;SDS011;7062;49.792;9.946;2023-05-07T06:24:46;7.07;;;6.40;;
13975;SDS011;7062;49.792;9.946;2023-05-07T06:27:12;8.20;;;7.50;;
13975;SDS011;7062;49.792;9.946;2023-05-07T06:29:38;7.23;;;6.50;;
13975;SDS011;7062;49.792;9.946;2023-05-07T06:32:07;7.07;;;6.47;;
13975;SDS011;7062;49.792;9.946;2023-05-07T06:34:37;7.43;;;6.73;;
13975;SDS011;7062;49.792;9.946;2023-05-07T06:37:03;7.83;;;7.13;;
13975;SDS011;7062;49.792;9.946;2023-05-07T06:39:28;6.93;;;6.33;;
13975;SDS011;7062;49.792;9.946;2023-05-07T06:41:54;6.93;;;6.33;;
13975;SDS011;7062;49.792;9.946;2023-05-07T06:44:19;7.53;;;6.93;;
13975;SDS011;7062;49.792;9.946;2023-05-07T06:46:45;7.77;;;6.10;;
13975;SDS011;7062;49.792;9.946;2023-05-07T06:49:14;7.43;;;6.73;;
13975;SDS011;7062;49.792;9.946;2023-05-07T06:51:40;7.57;;;6.97;;
13975;SDS011;7062;49.792;9.946;2023-05-07T06:54:06;7.77;;;7.13;;
13975;SDS011;7062;49.792;9.946;2023-05-07T06:56:32;7.47;;;6.73;;
13975;SDS011;7062;49.792;9.946;2023-05-07T06:58:59;10.13;;;6.33;;
13975;SDS011;7062;49.792;9.946;2023-05-07T07:01:25;7.40;;;6.80;;
13975;SDS011;7062;49.792;9.946;2023-05-07T07:03:51;7.57;;;6.43;;
13975;SDS011;7062;49.792;9.946;2023-05-07T07:06:17;7.90;;;7.30;;
13975;SDS011;7062;49.792;9.946;2023-05-07T07:08:42;7.67;;;7.03;;
13975;SDS011;7062;49.792;9.946;2023-05-07T07:11:08;7.80;;;7.10;;
13975;SDS011;7062;49.792;9.946;2023-05-07T07:13:35;8.23;;;7.43;;
13975;SDS011;7062;49.792;9.946;2023-05-07T07:16:00;8.07;;;7.37;;
13975;SDS011;7062;49.792;9.946;2023-05-07T07:18:26;8.10;;;7.30;;
13975;SDS011;7062;49.792;9.946;2023-05-07T07:20:52;7.47;;;6.87;;
13975;SDS011;7062;49.792;9.946;2023-05-07T07:23:18;11.27;;;7.23;;
13975;SDS011;7062;49.792;9.946;2023-05-07T07:25:44;7.27;;;6.67;;
13975;SDS011;7062;49.792;9.946;2023-05-07T07:28:09;8.33;;;7.53;;
13975;SDS011;7062;49.792;9.946;2023-05-07T07:30:35;8.47;;;7.83;;
13975;SDS011;7062;49.792;9.946;2023-05-07T07:33:01;8.77;;;7.97;;
13975;SDS011;7062;49.792;9.946;2023-05-07T07:35:31;7.80;;;6.13;;
13975;SDS011;7062;49.792;9.946;2023-05-07T07:37:57;8.20;;;7.37;;
13975;SDS011;7062;49.792;9.946;2023-05-07T07:40:23;6.97;;;6.37;;
13975;SDS011;7062;49.792;9.946;2023-05-07T07:42:50;7.70;;;7.10;;
13975;SDS011;7062;49.792;9.946;2023-05-07T07:45:18;10.70;;;6.63;;
13975;SDS011;7062;49.792;9.946;2023-05-07T07:47:44;7.77;;;7.00;;
13975;SDS011;7062;49.792;9.946;2023-05-07T07:50:10;7.67;;;7.03;;
13975;SDS011;7062;49.792;9.946;2023-05-07T07:52:36;8.53;;;7.73;;
13975;SDS011;7062;49.792;9.946;2023-05-07T07:55:02;7.60;;;6.87;;
13975;SDS011;7062;49.792;9.946;2023-05-07T07:57:28;8.10;;;7.30;;
13975;SDS011;7062;49.792;9.946;2023-05-07T07:59:53;6.40;;;5.80;;
13975;SDS011;7062;49.792;9.946;2023-05-07T08:02:19;8.43;;;6.60;;
13975;SDS011;7062;49.792;9.946;2023-05-07T08:04:45;7.33;;;6.70;;
13975;SDS011;7062;49.792;9.946;2023-05-07T08:07:11;6.57;;;5.97;;
13975;SDS011;7062;49.792;9.946;2023-05-07T08:09:37;7.67;;;7.07;;
13975;SDS011;7062;49.792;9.946;2023-05-07T08:12:03;6.83;;;6.03;;
13975;SDS011;7062;49.792;9.946;2023-05-07T08:14:30;7.73;;;7.00;;
13975;SDS011;7062;49.792;9.946;2023-05-07T08:16:55;8.17;;;6.53;;
13975;SDS011;7062;49.792;9.946;2023-05-07T08:19:21;7.63;;;6.90;;
13975;SDS011;7062;49.792;9.946;2023-05-07T08:21:47;7.47;;;6.77;;
13975;SDS011;7062;49.792;9.946;2023-05-07T08:24:14;6.83;;;6.17;;
13975;SDS011;7062;49.792;9.946;2023-05-07T08:26:40;7.50;;;6.90;;
13975;SDS011;7062;49.792;9.946;2023-05-07T08:29:06;8.07;;;6.37;;
13975;SDS011;7062;49.792;9.946;2023-05-07T08:31:32;6.37;;;5.87;;
13975;SDS011;7062;49.792;9.946;2023-05-07T08:33:58;6.90;;;6.27;;
13975;SDS011;7062;49.792;9.946;2023-05-07T08:36:24;5.87;;;5.37;;
13975;SDS011;7062;49.792;9.946;2023-05-07T08:38:50;6.50;;;5.77;;
13975;SDS011;7062;49.792;9.946;2023-05-07T08:41:17;6.60;;;6.07;;
13975;SDS011;7062;49.792;9.946;2023-05-07T08:43:43;6.50;;;5.67;;
13975;SDS011;7062;49.792;9.946;2023-05-07T08:46:16;6.83;;;6.23;;
13975;SDS011;7062;49.792;9.946;2023-05-07T08:48:44;6.27;;;5.67;;
13975;SDS011;7062;49.792;9.946;2023-05-07T08:51:13;6.27;;;5.77;;
13975;SDS011;7062;49.792;9.946;2023-05-07T08:53:40;6.30;;;5.77;;
13975;SDS011;7062;49.792;9.946;2023-05-07T08:56:08;6.20;;;5.70;;
13975;SDS011;7062;49.792;9.946;2023-05-07T08:58:33;6.90;;;6.20;;
13975;SDS011;7062;49.792;9.946;2023-05-07T09:01:00;6.23;;;5.63;;
13975;SDS011;7062;49.792;9.946;2023-05-07T09:03:32;6.87;;;5.97;;
13975;SDS011;7062;49.792;9.946;2023-05-07T09:05:58;6.27;;;5.70;;
13975;SDS011;7062;49.792;9.946;2023-05-07T09:08:24;6.00;;;5.43;;
13975;SDS011;7062;49.792;9.946;2023-05-07T09:10:51;6.40;;;5.90;;
13975;SDS011;7062;49.792;9.946;2023-05-07T09:13:17;7.57;;;6.23;;
13975;SDS011;7062;49.792;9.946;2023-05-07T09:15:43;6.00;;;5.40;;
13975;SDS011;7062;49.792;9.946;2023-05-07T09:18:09;6.00;;;5.27;;
13975;SDS011;7062;49.792;9.946;2023-05-07T09:20:36;6.83;;;6.13;;
13975;SDS011;7062;49.792;9.946;2023-05-07T09:23:02;6.90;;;6.23;;
13975;SDS011;7062;49.792;9.946;2023-05-07T09:25:29;6.70;;;6.00;;
13975;SDS011;7062;49.792;9.946;2023-05-07T09:27:59;6.17;;;5.67;;
13975;SDS011;7062;49.792;9.946;2023-05-07T09:30:31;6.23;;;5.73;;
13975;SDS011;7062;49.792;9.946;2023-05-07T09:32:58;6.63;;;5.87;;
13975;SDS011;7062;49.792;9.946;2023-05-07T09:35:25;5.37;;;4.87;;
13975;SDS011;7062;49.792;9.946;2023-05-07T09:37:57;6.70;;;6.10;;
13975;SDS011;7062;49.792;9.946;2023-05-07T09:40:24;5.47;;;4.97;;
13975;SDS011;7062;49.792;9.946;2023-05-07T09:42:51;6.97;;;6.30;;
13975;SDS011;7062;49.792;9.946;2023-05-07T09:45:26;6.03;;;5.53;;
13975;SDS011;7062;49.792;9.946;2023-05-07T09:47:57;6.60;;;5.97;;
13975;SDS011;7062;49.792;9.946;2023-05-07T09:50:26;5.53;;;5.00;;
13975;SDS011;7062;49.792;9.946;2023-05-07T09:52:57;6.47;;;5.90;;
13975;SDS011;7062;49.792;9.946;2023-05-07T09:55:23;5.23;;;4.83;;
13975;SDS011;7062;49.792;9.946;2023-05-07T09:57:50;6.03;;;5.53;;
13975;SDS011;7062;49.792;9.946;2023-05-07T10:00:18;6.20;;;5.60;;
13975;SDS011;7062;49.792;9.946;2023-05-07T10:02:45;5.67;;;5.00;;
13975;SDS011;7062;49.792;9.946;2023-05-07T10:05:17;5.90;;;5.40;;
13975;SDS011;7062;49.792;9.946;2023-05-07T10:07:45;5.97;;;5.47;;
13975;SDS011;7062;49.792;9.946;2023-05-07T10:10:11;4.67;;;4.27;;
13975;SDS011;7062;49.792;9.946;2023-05-07T10:12:37;5.80;;;5.40;;
13975;SDS011;7062;49.792;9.946;2023-05-07T10:15:08;5.70;;;5.30;;
13975;SDS011;7062;49.792;9.946;2023-05-07T10:17:38;6.23;;;5.83;;
13975;SDS011;7062;49.792;9.946;2023-05-07T10:20:05;6.83;;;6.17;;
13975;SDS011;7062;49.792;9.946;2023-05-07T10:22:42;7.73;;;7.20;;
13975;SDS011;7062;49.792;9.946;2023-05-07T10:25:14;8.20;;;7.50;;
13975;SDS011;7062;49.792;9.946;2023-05-07T10:27:53;7.00;;;6.40;;
13975;SDS011;7062;49.792;9.946;2023-05-07T10:33:03;6.23;;;5.83;;
13975;SDS011;7062;49.792;9.946;2023-05-07T10:35:32;7.77;;;7.17;;
13975;SDS011;7062;49.792;9.946;2023-05-07T10:38:04;6.93;;;6.33;;
13975;SDS011;7062;49.792;9.946;2023-05-07T10:40:30;6.67;;;6.17;;
13975;SDS011;7062;49.792;9.946;2023-05-07T10:42:57;7.00;;;6.50;;
13975;SDS011;7062;49.792;9.946;2023-05-07T10:45:29;5.30;;;4.40;;
13975;SDS011;7062;49.792;9.946;2023-05-07T10:48:07;5.43;;;5.07;;
13975;SDS011;7062;49.792;9.946;2023-05-07T10:50:40;4.43;;;4.13;;
13975;SDS011;7062;49.792;9.946;2023-05-07T10:58:26;4.80;;;4.30;;
13975;SDS011;7062;49.792;9.946;2023-05-07T11:01:02;3.77;;;3.47;;
13975;SDS011;7062;49.792;9.946;2023-05-07T11:03:28;4.83;;;4.43;;
13975;SDS011;7062;49.792;9.946;2023-05-07T11:06:10;6.07;;;3.90;;
13975;SDS011;7062;49.792;9.946;2023-05-07T11:09:11;4.33;;;3.50;;
13975;SDS011;7062;49.792;9.946;2023-05-07T11:11:46;3.30;;;3.10;;
13975;SDS011;7062;49.792;9.946;2023-05-07T11:14:13;3.97;;;3.60;;
13975;SDS011;7062;49.792;9.946;2023-05-07T11:16:40;4.07;;;3.77;;
13975;SDS011;7062;49.792;9.946;2023-05-07T11:19:06;3.77;;;3.47;;
13975;SDS011;7062;49.792;9.946;2023-05-07T11:21:33;4.23;;;3.83;;
13975;SDS011;7062;49.792;9.946;2023-05-07T11:23:59;4.37;;;3.73;;
13975;SDS011;7062;49.792;9.946;2023-05-07T11:26:25;3.90;;;3.60;;
13975;SDS011;7062;49.792;9.946;2023-05-07T11:28:51;4.47;;;3.93;;
13975;SDS011;7062;49.792;9.946;2023-05-07T11:31:22;4.70;;;3.90;;
13975;SDS011;7062;49.792;9.946;2023-05-07T11:33:49;4.63;;;4.03;;
13975;SDS011;7062;49.792;9.946;2023-05-07T11:36:15;4.07;;;3.77;;
13975;SDS011;7062;49.792;9.946;2023-05-07T11:38:41;3.23;;;2.93;;
13975;SDS011;7062;49.792;9.946;2023-05-07T11:41:07;3.03;;;2.57;;
13975;SDS011;7062;49.792;9.946;2023-05-07T11:43:32;4.87;;;4.47;;
13975;SDS011;7062;49.792;9.946;2023-05-07T11:46:09;4.60;;;4.20;;
13975;SDS011;7062;49.792;9.946;2023-05-07T11:48:36;5.10;;;4.80;;
13975;SDS011;7062;49.792;9.946;2023-05-07T11:51:03;4.80;;;4.40;;
13975;SDS011;7062;49.792;9.946;2023-05-07T11:53:39;5.57;;;5.27;;
13975;SDS011;7062;49.792;9.946;2023-05-07T11:56:10;5.87;;;5.37;;
13975;SDS011;7062;49.792;9.946;2023-05-07T11:58:37;5.33;;;4.97;;
13975;SDS011;7062;49.792;9.946;2023-05-07T12:01:03;5.20;;;4.70;;
13975;SDS011;7062;49.792;9.946;2023-05-07T12:03:29;5.00;;;4.70;;
13975;SDS011;7062;49.792;9.946;2023-05-07T12:05:54;5.23;;;4.77;;
13975;SDS011;7062;49.792;9.946;2023-05-07T12:08:21;5.53;;;5.23;;
13975;SDS011;7062;49.792;9.946;2023-05-07T12:10:48;6.40;;;5.20;;
13975;SDS011;7062;49.792;9.946;2023-05-07T12:13:18;4.73;;;4.43;;
13975;SDS011;7062;49.792;9.946;2023-05-07T12:15:45;4.57;;;4.23;;
13975;SDS011;7062;49.792;9.946;2023-05-07T12:18:11;4.47;;;4.17;;
13975;SDS011;7062;49.792;9.946;2023-05-07T12:20:38;4.63;;;4.23;;
13975;SDS011;7062;49.792;9.946;2023-05-07T12:23:04;4.20;;;3.63;;
13975;SDS011;7062;49.792;9.946;2023-05-07T12:25:37;4.10;;;3.90;;
13975;SDS011;7062;49.792;9.946;2023-05-07T12:28:04;4.30;;;4.00;;
13975;SDS011;7062;49.792;9.946;2023-05-07T12:30:39;4.87;;;4.57;;
13975;SDS011;7062;49.792;9.946;2023-05-07T12:33:05;4.60;;;4.30;;
13975;SDS011;7062;49.792;9.946;2023-05-07T12:35:32;4.33;;;4.03;;
13975;SDS011;7062;49.792;9.946;2023-05-07T12:38:08;4.07;;;3.87;;
13975;SDS011;7062;49.792;9.946;2023-05-07T12:40:45;3.87;;;3.63;;
13975;SDS011;7062;49.792;9.946;2023-05-07T12:43:19;3.93;;;3.63;;
13975;SDS011;7062;49.792;9.946;2023-05-07T12:45:47;4.00;;;3.70;;
13975;SDS011;7062;49.792;9.946;2023-05-07T12:48:14;3.67;;;3.33;;
13975;SDS011;7062;49.792;9.946;2023-05-07T12:50:40;2.87;;;2.67;;
13975;SDS011;7062;49.792;9.946;2023-05-07T12:53:06;2.90;;;2.70;;
13975;SDS011;7062;49.792;9.946;2023-05-07T12:55:40;3.67;;;3.37;;
13975;SDS011;7062;49.792;9.946;2023-05-07T12:58:20;3.70;;;3.40;;
13975;SDS011;7062;49.792;9.946;2023-05-07T13:00:56;3.10;;;2.80;;
13975;SDS011;7062;49.792;9.946;2023-05-07T13:03:28;3.40;;;3.20;;
13975;SDS011;7062;49.792;9.946;2023-05-07T13:05:56;4.20;;;3.80;;
13975;SDS011;7062;49.792;9.946;2023-05-07T13:08:28;3.97;;;3.67;;
13975;SDS011;7062;49.792;9.946;2023-05-07T13:10:56;3.30;;;3.00;;
13975;SDS011;7062;49.792;9.946;2023-05-07T13:13:32;3.20;;;2.90;;
13975;SDS011;7062;49.792;9.946;2023-05-07T13:15:59;2.70;;;2.50;;
13975;SDS011;7062;49.792;9.946;2023-05-07T13:18:25;2.93;;;2.73;;
13975;SDS011;7062;49.792;9.946;2023-05-07T13:20:51;3.57;;;2.43;;
13975;SDS011;7062;49.792;9.946;2023-05-07T13:23:18;3.17;;;2.97;;
13975;SDS011;7062;49.792;9.946;2023-05-07T13:25:43;3.53;;;3.00;;
13975;SDS011;7062;49.792;9.946;2023-05-07T13:28:09;2.50;;;2.30;;
13975;SDS011;7062;49.792;9.946;2023-05-07T13:30:35;3.27;;;2.57;;
13975;SDS011;7062;49.792;9.946;2023-05-07T13:33:01;2.37;;;2.23;;
13975;SDS011;7062;49.792;9.946;2023-05-07T13:35:26;2.27;;;2.17;;
13975;SDS011;7062;49.792;9.946;2023-05-07T13:37:52;2.60;;;2.10;;
13975;SDS011;7062;49.792;9.946;2023-05-07T13:40:19;4.17;;;2.63;;
13975;SDS011;7062;49.792;9.946;2023-05-07T13:42:45;2.13;;;2.00;;
13975;SDS011;7062;49.792;9.946;2023-05-07T13:45:11;2.10;;;2.00;;
13975;SDS011;7062;49.792;9.946;2023-05-07T13:47:39;1.90;;;1.53;;
13975;SDS011;7062;49.792;9.946;2023-05-07T13:50:05;1.80;;;1.70;;
13975;SDS011;7062;49.792;9.946;2023-05-07T13:52:32;1.60;;;1.40;;
13975;SDS011;7062;49.792;9.946;2023-05-07T13:54:58;2.60;;;1.53;;
13975;SDS011;7062;49.792;9.946;2023-05-07T13:57:23;1.53;;;1.43;;
13975;SDS011;7062;49.792;9.946;2023-05-07T13:59:49;1.67;;;1.53;;
13975;SDS011;7062;49.792;9.946;2023-05-07T14:02:15;2.40;;;1.70;;
13975;SDS011;7062;49.792;9.946;2023-05-07T14:04:41;2.10;;;1.87;;
13975;SDS011;7062;49.792;9.946;2023-05-07T14:07:06;2.87;;;2.10;;
13975;SDS011;7062;49.792;9.946;2023-05-07T14:09:32;1.90;;;1.80;;
13975;SDS011;7062;49.792;9.946;2023-05-07T14:11:58;2.50;;;2.30;;
13975;SDS011;7062;49.792;9.946;2023-05-07T14:14:24;2.87;;;2.57;;
13975;SDS011;7062;49.792;9.946;2023-05-07T14:16:50;2.57;;;2.40;;
13975;SDS011;7062;49.792;9.946;2023-05-07T14:19:15;5.70;;;2.80;;
13975;SDS011;7062;49.792;9.946;2023-05-07T14:21:41;3.40;;;3.10;;
13975;SDS011;7062;49.792;9.946;2023-05-07T14:24:06;3.00;;;2.70;;
13975;SDS011;7062;49.792;9.946;2023-05-07T14:26:33;2.67;;;2.40;;
13975;SDS011;7062;49.792;9.946;2023-05-07T14:28:59;2.97;;;2.73;;
13975;SDS011;7062;49.792;9.946;2023-05-07T14:31:25;3.23;;;2.70;;
13975;SDS011;7062;49.792;9.946;2023-05-07T14:33:51;2.33;;;2.23;;
13975;SDS011;7062;49.792;9.946;2023-05-07T14:36:18;2.30;;;2.10;;
13975;SDS011;7062;49.792;9.946;2023-05-07T14:38:47;2.90;;;2.70;;
13975;SDS011;7062;49.792;9.946;2023-05-07T14:41:13;2.30;;;2.10;;
13975;SDS011;7062;49.792;9.946;2023-05-07T14:43:39;2.87;;;2.67;;
13975;SDS011;7062;49.792;9.946;2023-05-07T14:46:05;5.50;;;3.37;;
13975;SDS011;7062;49.792;9.946;2023-05-07T14:48:31;3.60;;;3.10;;
13975;SDS011;7062;49.792;9.946;2023-05-07T14:50:56;3.83;;;3.23;;
13975;SDS011;7062;49.792;9.946;2023-05-07T14:53:22;4.10;;;3.80;;
13975;SDS011;7062;49.792;9.946;2023-05-07T14:55:48;3.33;;;3.03;;
13975;SDS011;7062;49.792;9.946;2023-05-07T14:58:13;3.00;;;2.80;;
13975;SDS011;7062;49.792;9.946;2023-05-07T15:00:39;2.33;;;2.13;;
13975;SDS011;7062;49.792;9.946;2023-05-07T15:03:06;1.90;;;1.77;;
13975;SDS011;7062;49.792;9.946;2023-05-07T15:05:33;3.70;;;2.50;;
13975;SDS011;7062;49.792;9.946;2023-05-07T15:07:59;2.47;;;2.27;;